createdAt,value
2024-05-09T00:00:40.043Z,15
2024-05-09T00:01:37.883Z,15
2024-05-09T00:02:37.898Z,15
2024-05-09T00:03:37.879Z,16
2024-05-09T00:04:37.869Z,15
2024-05-09T00:05:38.137Z,15
2024-05-09T00:06:37.925Z,15
2024-05-09T00:07:39.167Z,16
2024-05-09T00:08:37.909Z,16
2024-05-09T00:09:37.871Z,15
2024-05-09T00:10:39.287Z,15
2024-05-09T00:11:37.923Z,15
2024-05-09T00:12:37.970Z,15
2024-05-09T00:13:37.850Z,15
2024-05-09T00:14:37.995Z,15
2024-05-09T00:15:37.870Z,14
2024-05-09T00:16:37.873Z,15
2024-05-09T00:17:38.082Z,15
2024-05-09T00:18:37.958Z,15
2024-05-09T00:19:37.886Z,14
2024-05-09T00:20:40.728Z,14
2024-05-09T00:21:37.920Z,14
2024-05-09T00:23:37.934Z,15
2024-05-09T00:24:37.863Z,14
2024-05-09T00:25:37.858Z,15
2024-05-09T00:26:37.924Z,15
2024-05-09T00:27:37.865Z,14
2024-05-09T00:28:37.868Z,14
2024-05-09T00:29:37.919Z,14
2024-05-09T00:30:37.942Z,15
2024-05-09T00:31:37.877Z,14
2024-05-09T00:32:38.145Z,14
2024-05-09T00:33:38.088Z,15
2024-05-09T00:34:37.894Z,15
2024-05-09T00:35:38.541Z,15
2024-05-09T00:36:37.855Z,15
2024-05-09T00:37:37.871Z,16
2024-05-09T00:38:38.070Z,15
2024-05-09T00:39:37.915Z,15
2024-05-09T00:40:40.836Z,15
2024-05-09T00:41:37.899Z,15
2024-05-09T00:42:37.847Z,14
2024-05-09T00:43:37.846Z,15
2024-05-09T00:44:38.033Z,15
2024-05-09T00:45:37.872Z,16
2024-05-09T00:47:37.974Z,13
2024-05-09T00:48:38.021Z,14
2024-05-09T00:49:38.124Z,13
2024-05-09T00:50:42.469Z,14
2024-05-09T00:51:37.846Z,13
2024-05-09T00:52:37.957Z,13
2024-05-09T00:53:38.030Z,12
2024-05-09T00:54:38.107Z,13
2024-05-09T00:55:37.887Z,13
2024-05-09T00:56:37.934Z,13
2024-05-09T00:57:37.856Z,14
2024-05-09T00:58:37.866Z,13
2024-05-09T00:59:38.048Z,14
2024-05-09T01:00:40.326Z,13
2024-05-09T01:01:37.988Z,14
2024-05-09T01:02:37.939Z,14
2024-05-09T01:03:45.250Z,14
2024-05-09T01:04:38.210Z,14
2024-05-09T01:05:37.883Z,15
2024-05-09T01:06:37.868Z,13
2024-05-09T01:07:37.852Z,13
2024-05-09T01:08:37.912Z,13
2024-05-09T01:10:37.913Z,13
2024-05-09T01:11:38.049Z,13
2024-05-09T01:12:37.956Z,14
2024-05-09T01:13:37.876Z,13
2024-05-09T01:14:37.911Z,15
2024-05-09T01:15:39.293Z,13
2024-05-09T01:16:37.870Z,13
2024-05-09T01:17:38.088Z,14
2024-05-09T01:18:38.137Z,15
2024-05-09T01:19:37.929Z,14
2024-05-09T01:20:42.284Z,14
2024-05-09T01:21:37.869Z,15
2024-05-09T01:22:37.890Z,15
2024-05-09T01:23:37.978Z,15
2024-05-09T01:24:37.857Z,16
2024-05-09T01:25:37.988Z,14
2024-05-09T01:26:37.938Z,15
2024-05-09T01:27:37.879Z,14
2024-05-09T01:28:45.432Z,16
2024-05-09T01:29:37.900Z,14
2024-05-09T01:30:38.571Z,15
2024-05-09T01:31:37.915Z,15
2024-05-09T01:32:37.979Z,15
2024-05-09T01:33:38.344Z,16
2024-05-09T01:34:37.938Z,15
2024-05-09T01:35:38.005Z,14
2024-05-09T01:36:37.858Z,14
2024-05-09T01:37:37.931Z,15
2024-05-09T01:38:38.278Z,15
2024-05-09T01:39:37.858Z,14
2024-05-09T01:40:40.045Z,14
2024-05-09T01:41:37.897Z,15
2024-05-09T01:42:37.881Z,15
2024-05-09T01:43:37.898Z,15
2024-05-09T01:44:38.018Z,16
2024-05-09T01:45:37.876Z,15
2024-05-09T01:46:37.885Z,15
2024-05-09T01:47:38.092Z,16
2024-05-09T01:48:37.929Z,16
2024-05-09T01:49:37.943Z,16
2024-05-09T01:50:41.280Z,15
2024-05-09T01:51:37.882Z,15
2024-05-09T01:52:37.876Z,16
2024-05-09T01:53:37.896Z,15
2024-05-09T01:54:37.866Z,15
2024-05-09T01:55:37.906Z,15
2024-05-09T01:56:37.935Z,15
2024-05-09T01:57:37.862Z,15
2024-05-09T01:58:37.870Z,15
2024-05-09T01:59:37.870Z,16
2024-05-09T02:00:41.376Z,15
2024-05-09T02:01:55.737Z,16
2024-05-09T02:02:37.942Z,15
2024-05-09T02:03:38.004Z,15
2024-05-09T02:04:37.966Z,14
2024-05-09T02:05:38.070Z,16
2024-05-09T02:06:37.854Z,15
2024-05-09T02:07:37.882Z,15
2024-05-09T02:08:37.974Z,15
2024-05-09T02:09:44.251Z,14
2024-05-09T02:10:37.862Z,16
2024-05-09T02:11:37.980Z,14
2024-05-09T02:12:37.866Z,15
2024-05-09T02:13:37.880Z,14
2024-05-09T02:14:37.964Z,16
2024-05-09T02:15:38.023Z,15
2024-05-09T02:16:37.874Z,16
2024-05-09T02:17:38.058Z,15
2024-05-09T02:18:37.970Z,16
2024-05-09T02:19:37.952Z,16
2024-05-09T02:20:37.938Z,16
2024-05-09T02:21:37.853Z,15
2024-05-09T02:22:37.864Z,14
2024-05-09T02:23:37.999Z,15
2024-05-09T02:24:37.879Z,16
2024-05-09T02:25:37.878Z,15
2024-05-09T02:26:37.904Z,15
2024-05-09T02:27:37.864Z,15
2024-05-09T02:28:37.877Z,15
2024-05-09T02:29:38.020Z,14
2024-05-09T02:30:40.966Z,15
2024-05-09T02:31:37.879Z,14
2024-05-09T02:32:38.127Z,15
2024-05-09T02:33:38.189Z,14
2024-05-09T02:34:37.909Z,14
2024-05-09T02:35:37.943Z,15
2024-05-09T02:36:37.928Z,14
2024-05-09T02:37:37.862Z,14
2024-05-09T02:38:37.964Z,13
2024-05-09T02:39:37.868Z,14
2024-05-09T02:40:39.575Z,15
2024-05-09T02:41:37.943Z,15
2024-05-09T02:43:37.877Z,14
2024-05-09T02:44:37.932Z,14
2024-05-09T02:45:37.895Z,15
2024-05-09T02:46:37.863Z,14
2024-05-09T02:47:38.033Z,14
2024-05-09T02:48:38.168Z,14
2024-05-09T02:49:37.933Z,14
2024-05-09T02:50:39.834Z,14
2024-05-09T02:51:37.871Z,14
2024-05-09T02:52:37.873Z,15
2024-05-09T02:54:37.857Z,14
2024-05-09T02:55:37.963Z,14
2024-05-09T02:56:37.930Z,14
2024-05-09T02:57:37.883Z,14
2024-05-09T02:58:38.004Z,14
2024-05-09T02:59:37.891Z,14
2024-05-09T03:00:40.957Z,14
2024-05-09T03:01:38.024Z,14
2024-05-09T03:02:37.962Z,14
2024-05-09T03:03:38.137Z,14
2024-05-09T03:04:37.939Z,13
2024-05-09T03:05:38.024Z,13
2024-05-09T03:06:37.869Z,14
2024-05-09T03:07:37.874Z,15
2024-05-09T03:08:37.921Z,15
2024-05-09T03:09:37.858Z,14
2024-05-09T03:10:39.193Z,14
2024-05-09T03:11:41.272Z,14
2024-05-09T03:12:39.383Z,14
2024-05-09T03:13:37.878Z,14
2024-05-09T03:14:37.918Z,14
2024-05-09T03:15:37.904Z,14
2024-05-09T03:16:37.893Z,14
2024-05-09T03:17:37.990Z,14
2024-05-09T03:18:37.934Z,14
2024-05-09T03:19:38.014Z,14
2024-05-09T03:20:38.277Z,14
2024-05-09T03:21:37.884Z,14
2024-05-09T03:22:37.879Z,14
2024-05-09T03:23:37.881Z,15
2024-05-09T03:24:37.881Z,16
2024-05-09T03:25:37.940Z,16
2024-05-09T03:26:37.938Z,16
2024-05-09T03:27:37.872Z,15
2024-05-09T03:28:37.884Z,15
2024-05-09T03:29:37.923Z,15
2024-05-09T03:30:41.990Z,16
2024-05-09T03:32:37.985Z,15
2024-05-09T03:33:38.178Z,15
2024-05-09T03:34:37.885Z,15
2024-05-09T03:35:38.002Z,16
2024-05-09T03:36:37.871Z,16
2024-05-09T03:37:37.868Z,15
2024-05-09T03:38:37.985Z,15
2024-05-09T03:39:37.879Z,15
2024-05-09T03:40:37.933Z,16
2024-05-09T03:41:37.914Z,16
2024-05-09T03:42:37.894Z,16
2024-05-09T03:43:37.893Z,16
2024-05-09T03:44:38.055Z,16
2024-05-09T03:45:37.900Z,16
2024-05-09T03:46:37.884Z,16
2024-05-09T03:47:38.113Z,17
2024-05-09T03:48:38.004Z,16
2024-05-09T03:49:38.030Z,15
2024-05-09T03:50:38.307Z,15
2024-05-09T03:51:37.890Z,15
2024-05-09T03:52:37.874Z,15
2024-05-09T03:53:37.897Z,14
2024-05-09T03:54:38.194Z,15
2024-05-09T03:55:37.890Z,15
2024-05-09T03:56:37.966Z,16
2024-05-09T03:57:37.878Z,15
2024-05-09T03:58:37.885Z,16
2024-05-09T03:59:38.174Z,17
2024-05-09T04:00:39.645Z,16
2024-05-09T04:01:37.960Z,16
2024-05-09T04:02:37.982Z,16
2024-05-09T04:03:38.077Z,16
2024-05-09T04:04:38.377Z,15
2024-05-09T04:05:38.323Z,17
2024-05-09T04:06:37.897Z,16
2024-05-09T04:07:37.884Z,16
2024-05-09T04:08:37.926Z,17
2024-05-09T04:09:38.305Z,16
2024-05-09T04:10:38.045Z,16
2024-05-09T04:11:37.962Z,17
2024-05-09T04:12:38.013Z,17
2024-05-09T04:13:37.871Z,17
2024-05-09T04:15:37.875Z,17
2024-05-09T04:16:37.896Z,16
2024-05-09T04:17:38.080Z,17
2024-05-09T04:18:37.971Z,19
2024-05-09T04:19:37.963Z,16
2024-05-09T04:20:40.400Z,18
2024-05-09T04:21:37.910Z,17
2024-05-09T04:22:37.893Z,18
2024-05-09T04:23:38.012Z,18
2024-05-09T04:24:38.424Z,17
2024-05-09T04:25:38.070Z,16
2024-05-09T04:26:37.945Z,16
2024-05-09T04:27:37.890Z,17
2024-05-09T04:28:37.884Z,18
2024-05-09T04:29:37.964Z,17
2024-05-09T04:30:40.686Z,18
2024-05-09T04:31:37.915Z,18
2024-05-09T04:32:38.019Z,17
2024-05-09T04:33:38.007Z,18
2024-05-09T04:34:37.892Z,17
2024-05-09T04:35:38.018Z,17
2024-05-09T04:36:39.660Z,17
2024-05-09T04:37:37.881Z,16
2024-05-09T04:38:37.987Z,16
2024-05-09T04:39:37.881Z,18
2024-05-09T04:40:38.461Z,17
2024-05-09T04:41:37.927Z,17
2024-05-09T04:42:37.912Z,17
2024-05-09T04:44:37.930Z,17
2024-05-09T04:45:37.967Z,18
2024-05-09T04:46:37.887Z,17
2024-05-09T04:47:38.139Z,18
2024-05-09T04:49:38.004Z,17
2024-05-09T04:50:39.460Z,19
2024-05-09T04:51:38.057Z,19
2024-05-09T04:52:37.878Z,18
2024-05-09T04:53:37.964Z,17
2024-05-09T04:55:37.906Z,19
2024-05-09T04:56:37.903Z,18
2024-05-09T04:57:37.879Z,19
2024-05-09T04:58:37.882Z,20
2024-05-09T05:00:39.088Z,19
2024-05-09T05:01:37.916Z,20
2024-05-09T05:02:37.976Z,20
2024-05-09T05:03:38.105Z,19
2024-05-09T05:04:37.916Z,19
2024-05-09T05:05:38.126Z,20
2024-05-09T05:06:37.870Z,19
2024-05-09T05:07:37.951Z,20
2024-05-09T05:08:37.963Z,18
2024-05-09T05:09:37.872Z,21
2024-05-09T05:10:37.895Z,19
2024-05-09T05:11:37.967Z,19
2024-05-09T05:12:39.018Z,21
2024-05-09T05:13:40.118Z,20
2024-05-09T05:14:37.904Z,20
2024-05-09T05:15:37.866Z,20
2024-05-09T05:16:37.876Z,20
2024-05-09T05:17:38.187Z,19
2024-05-09T05:18:45.785Z,21
2024-05-09T05:19:37.956Z,19
2024-05-09T05:20:37.951Z,20
2024-05-09T05:21:37.881Z,20
2024-05-09T05:22:37.890Z,19
2024-05-09T05:24:37.944Z,19
2024-05-09T05:25:37.884Z,19
2024-05-09T05:26:37.974Z,20
2024-05-09T05:27:52.035Z,19
2024-05-09T05:28:37.866Z,20
2024-05-09T05:29:39.777Z,20
2024-05-09T05:30:38.016Z,21
2024-05-09T05:31:37.910Z,21
2024-05-09T05:32:38.111Z,20
2024-05-09T05:33:38.118Z,20
2024-05-09T05:34:37.878Z,21
2024-05-09T05:35:37.935Z,20
2024-05-09T05:36:37.887Z,21
2024-05-09T05:37:37.893Z,21
2024-05-09T05:38:38.005Z,20
2024-05-09T05:39:37.866Z,18
2024-05-09T05:40:39.085Z,20
2024-05-09T05:41:37.946Z,20
2024-05-09T05:43:37.906Z,20
2024-05-09T05:44:37.972Z,20
2024-05-09T05:45:38.473Z,19
2024-05-09T05:46:37.919Z,21
2024-05-09T05:47:38.028Z,20
2024-05-09T05:48:38.042Z,21
2024-05-09T05:49:38.153Z,20
2024-05-09T05:50:38.760Z,20
2024-05-09T05:51:37.893Z,21
2024-05-09T05:52:37.908Z,21
2024-05-09T05:53:37.973Z,21
2024-05-09T05:54:37.908Z,22
2024-05-09T05:55:37.982Z,20
2024-05-09T05:56:37.934Z,21
2024-05-09T05:57:37.914Z,21
2024-05-09T05:58:37.905Z,20
2024-05-09T05:59:37.968Z,21
2024-05-09T06:00:39.952Z,20
2024-05-09T06:01:37.973Z,22
2024-05-09T06:02:38.047Z,20
2024-05-09T06:03:38.054Z,21
2024-05-09T06:04:37.902Z,21
2024-05-09T06:05:37.929Z,20
2024-05-09T06:06:37.889Z,20
2024-05-09T06:07:38.548Z,20
2024-05-09T06:08:37.923Z,20
2024-05-09T06:09:37.912Z,21
2024-05-09T06:10:40.247Z,19
2024-05-09T06:11:37.962Z,20
2024-05-09T06:12:37.894Z,21
2024-05-09T06:13:37.888Z,20
2024-05-09T06:14:37.946Z,19
2024-05-09T06:15:37.929Z,19
2024-05-09T06:16:37.904Z,20
2024-05-09T06:17:38.004Z,21
2024-05-09T06:18:38.094Z,22
2024-05-09T06:20:38.576Z,20
2024-05-09T06:21:37.887Z,22
2024-05-09T06:22:37.881Z,20
2024-05-09T06:23:38.129Z,22
2024-05-09T06:24:37.873Z,21
2024-05-09T06:25:38.028Z,22
2024-05-09T06:26:37.973Z,21
2024-05-09T06:27:37.907Z,21
2024-05-09T06:28:37.895Z,22
2024-05-09T06:29:37.934Z,22
2024-05-09T06:30:40.441Z,22
2024-05-09T06:31:37.917Z,22
2024-05-09T06:32:38.054Z,21
2024-05-09T06:33:38.066Z,21
2024-05-09T06:34:37.998Z,20
2024-05-09T06:35:38.157Z,22
2024-05-09T06:36:37.885Z,22
2024-05-09T06:37:37.916Z,21
2024-05-09T06:38:38.222Z,21
2024-05-09T06:39:37.906Z,22
2024-05-09T06:40:39.984Z,22
2024-05-09T06:41:37.936Z,22
2024-05-09T06:42:37.900Z,22
2024-05-09T06:43:37.930Z,22
2024-05-09T06:44:37.946Z,23
2024-05-09T06:45:37.900Z,22
2024-05-09T06:46:37.924Z,23
2024-05-09T06:47:38.162Z,22
2024-05-09T06:48:38.020Z,22
2024-05-09T06:49:38.097Z,23
2024-05-09T06:50:39.418Z,23
2024-05-09T06:51:37.891Z,23
2024-05-09T06:52:37.911Z,22
2024-05-09T06:53:38.101Z,21
2024-05-09T06:54:37.935Z,23
2024-05-09T06:55:38.258Z,24
2024-05-09T06:56:37.926Z,22
2024-05-09T06:57:40.536Z,22
2024-05-09T06:58:43.144Z,22
2024-05-09T06:59:37.964Z,24
2024-05-09T07:00:40.561Z,23
2024-05-09T07:01:37.972Z,23
2024-05-09T07:02:38.119Z,23
2024-05-09T07:03:37.980Z,21
2024-05-09T07:05:37.980Z,22
2024-05-09T07:06:37.896Z,20
2024-05-09T07:07:37.934Z,21
2024-05-09T07:08:38.051Z,23
2024-05-09T07:09:37.904Z,26
2024-05-09T07:10:38.397Z,28
2024-05-09T07:11:38.052Z,28
2024-05-09T07:12:37.996Z,30
2024-05-09T07:13:37.954Z,31
2024-05-09T07:14:38.628Z,33
2024-05-09T07:15:37.940Z,38
2024-05-09T07:16:37.912Z,35
2024-05-09T07:17:38.049Z,29
2024-05-09T07:18:38.103Z,26
2024-05-09T07:19:38.017Z,25
2024-05-09T07:20:38.008Z,25
2024-05-09T07:21:37.904Z,24
2024-05-09T07:22:37.967Z,22
2024-05-09T07:23:37.964Z,22
2024-05-09T07:24:37.922Z,23
2024-05-09T07:25:37.892Z,22
2024-05-09T07:26:38.027Z,23
2024-05-09T07:27:37.901Z,23
2024-05-09T07:28:37.951Z,23
2024-05-09T07:29:38.785Z,24
2024-05-09T07:30:38.033Z,23
2024-05-09T07:31:37.915Z,25
2024-05-09T07:32:38.112Z,23
2024-05-09T07:33:38.008Z,22
2024-05-09T07:34:38.010Z,26
2024-05-09T07:35:37.990Z,34
2024-05-09T07:36:37.899Z,35
2024-05-09T07:37:37.910Z,34
2024-05-09T07:38:40.920Z,31
2024-05-09T07:40:37.887Z,29
2024-05-09T07:41:37.947Z,35
2024-05-09T07:42:37.917Z,42
2024-05-09T07:44:37.959Z,36
2024-05-09T07:45:48.475Z,26
2024-05-09T07:47:47.288Z,25
2024-05-09T07:48:58.033Z,21
2024-05-09T07:53:14.257Z,24
2024-05-09T07:53:33.654Z,21
2024-05-09T07:53:43.411Z,23
2024-05-09T07:54:42.984Z,24
2024-05-09T07:56:38.439Z,26
2024-05-09T07:57:37.923Z,30
2024-05-09T07:58:37.914Z,25
2024-05-09T07:59:38.193Z,23
2024-05-09T08:00:38.028Z,22
2024-05-09T08:01:38.062Z,24
2024-05-09T08:02:37.981Z,24
2024-05-09T08:03:38.208Z,24
2024-05-09T08:04:38.027Z,24
2024-05-09T08:05:37.987Z,24
2024-05-09T08:06:37.935Z,24
2024-05-09T08:07:37.925Z,23
2024-05-09T08:08:37.927Z,24
2024-05-09T08:09:38.695Z,25
2024-05-09T08:10:37.946Z,26
2024-05-09T08:11:37.991Z,26
2024-05-09T08:12:38.021Z,25
2024-05-09T08:13:37.930Z,24
2024-05-09T08:14:37.908Z,23
2024-05-09T08:15:37.990Z,23
2024-05-09T08:16:37.944Z,22
2024-05-09T08:17:38.020Z,22
2024-05-09T08:18:38.074Z,23
2024-05-09T08:19:37.995Z,24
2024-05-09T08:20:37.908Z,25
2024-05-09T08:21:37.941Z,25
2024-05-09T08:22:37.902Z,23
2024-05-09T08:23:37.976Z,22
2024-05-09T08:24:37.957Z,23
2024-05-09T08:25:37.922Z,23
2024-05-09T08:26:37.898Z,23
2024-05-09T08:27:37.985Z,22
2024-05-09T08:28:38.408Z,23
2024-05-09T08:29:37.914Z,24
2024-05-09T08:30:38.506Z,23
2024-05-09T08:31:38.010Z,21
2024-05-09T08:32:38.007Z,22
2024-05-09T08:33:38.089Z,23
2024-05-09T08:34:37.972Z,24
2024-05-09T08:35:37.941Z,25
2024-05-09T08:37:40.065Z,21
2024-05-09T08:38:38.021Z,21
2024-05-09T08:40:38.442Z,26
2024-05-09T08:41:37.924Z,24
2024-05-09T08:42:37.935Z,24
2024-05-09T08:43:41.511Z,21
2024-05-09T08:44:37.946Z,23
2024-05-09T08:45:37.958Z,22
2024-05-09T08:46:37.932Z,20
2024-05-09T08:47:37.999Z,22
2024-05-09T08:48:38.171Z,30
2024-05-09T08:49:40.783Z,31
2024-05-09T08:50:39.633Z,23
2024-05-09T08:51:37.944Z,22
2024-05-09T08:52:37.925Z,21
2024-05-09T08:53:37.915Z,21
2024-05-09T08:54:37.934Z,21
2024-05-09T08:55:43.442Z,21
2024-05-09T08:57:38.099Z,21
2024-05-09T08:58:53.252Z,19
2024-05-09T08:59:37.905Z,19
2024-05-09T09:00:38.080Z,20
2024-05-09T09:01:39.302Z,19
2024-05-09T09:02:38.033Z,20
2024-05-09T09:03:38.140Z,20
2024-05-09T09:04:38.106Z,18
2024-05-09T09:05:38.118Z,20
2024-05-09T09:06:37.932Z,25
2024-05-09T09:07:37.923Z,22
2024-05-09T09:08:37.903Z,20
2024-05-09T09:09:37.950Z,17
2024-05-09T09:10:38.081Z,17
2024-05-09T09:11:37.931Z,17
2024-05-09T09:12:37.951Z,16
2024-05-09T09:13:37.916Z,16
2024-05-09T09:14:37.907Z,17
2024-05-09T09:15:37.943Z,20
2024-05-09T09:16:37.948Z,24
2024-05-09T09:17:38.004Z,22
2024-05-09T09:18:38.263Z,19
2024-05-09T09:19:37.971Z,16
2024-05-09T09:20:37.988Z,16
2024-05-09T09:22:07.329Z,15
2024-05-09T09:22:44.435Z,16
2024-05-09T09:24:42.268Z,15
2024-05-09T09:25:37.917Z,15
2024-05-09T09:26:37.912Z,15
2024-05-09T09:27:37.989Z,15
2024-05-09T09:28:39.600Z,15
2024-05-09T09:29:37.894Z,13
2024-05-09T09:30:38.314Z,14
2024-05-09T09:31:37.988Z,13
2024-05-09T09:32:38.025Z,12
2024-05-09T09:33:38.140Z,12
2024-05-09T09:34:37.970Z,13
2024-05-09T09:35:37.935Z,13
2024-05-09T09:36:37.911Z,11
2024-05-09T09:37:37.935Z,12
2024-05-09T09:38:38.032Z,11
2024-05-09T09:39:37.946Z,11
2024-05-09T09:40:42.814Z,11
2024-05-09T09:41:38.253Z,10
2024-05-09T09:42:52.333Z,10
2024-05-09T09:44:42.039Z,9
2024-05-09T09:45:37.978Z,10
2024-05-09T09:46:38.002Z,9
2024-05-09T09:47:38.358Z,8
2024-05-09T09:48:38.036Z,9
2024-05-09T09:49:37.992Z,8
2024-05-09T09:50:37.910Z,8
2024-05-09T09:52:37.919Z,8
2024-05-09T09:53:37.960Z,7
2024-05-09T09:54:37.999Z,7
2024-05-09T09:56:37.923Z,6
2024-05-09T09:57:37.982Z,6
2024-05-09T09:58:38.036Z,6
2024-05-09T09:59:37.930Z,5
2024-05-09T10:00:38.143Z,5
2024-05-09T10:01:38.070Z,6
2024-05-09T10:02:37.970Z,5
2024-05-09T10:03:38.094Z,5
2024-05-09T10:04:38.056Z,4
2024-05-09T10:05:39.810Z,4
2024-05-09T10:06:37.929Z,4
2024-05-09T10:07:37.930Z,3
2024-05-09T10:08:37.924Z,4
2024-05-09T10:09:38.020Z,3
2024-05-09T10:10:38.046Z,3
2024-05-09T10:11:45.149Z,3
2024-05-09T10:12:37.963Z,3
2024-05-09T10:13:37.916Z,3
2024-05-09T10:14:37.928Z,3
2024-05-09T10:15:37.993Z,4
2024-05-09T10:16:37.941Z,4
2024-05-09T10:17:38.071Z,4
2024-05-09T10:19:37.961Z,3
2024-05-09T10:20:37.929Z,3
2024-05-09T10:21:38.004Z,3
2024-05-09T10:22:37.920Z,3
2024-05-09T10:23:37.914Z,3
2024-05-09T10:24:37.964Z,3
2024-05-09T10:25:41.107Z,3
2024-05-09T10:27:37.943Z,2
2024-05-09T10:28:39.214Z,3
2024-05-09T10:29:37.915Z,3
2024-05-09T10:30:38.544Z,3
2024-05-09T10:31:48.138Z,3
2024-05-09T10:32:37.976Z,3
2024-05-09T10:33:38.151Z,2
2024-05-09T10:34:38.013Z,3
2024-05-09T10:35:37.943Z,3
2024-05-09T10:36:41.457Z,2
2024-05-09T10:37:37.927Z,3
2024-05-09T10:38:37.938Z,3
2024-05-09T10:39:37.957Z,2
2024-05-09T10:40:37.964Z,2
2024-05-09T10:41:37.936Z,2
2024-05-09T10:42:37.945Z,2
2024-05-09T10:43:37.919Z,2
2024-05-09T10:44:37.954Z,2
2024-05-09T10:45:37.976Z,2
2024-05-09T10:46:37.957Z,2
2024-05-09T10:47:37.955Z,2
2024-05-09T10:48:38.071Z,3
2024-05-09T10:49:37.996Z,3
2024-05-09T10:50:37.927Z,3
2024-05-09T10:51:37.975Z,2
2024-05-09T10:52:37.919Z,3
2024-05-09T10:53:37.933Z,2
2024-05-09T10:54:37.968Z,2
2024-05-09T10:55:37.946Z,2
2024-05-09T10:56:37.940Z,2
2024-05-09T10:57:38.093Z,3
2024-05-09T10:58:37.958Z,3
2024-05-09T10:59:37.937Z,3
2024-05-09T11:00:38.143Z,3
2024-05-09T11:01:38.050Z,3
2024-05-09T11:02:38.037Z,2
2024-05-09T11:03:38.874Z,2
2024-05-09T11:04:38.024Z,3
2024-05-09T11:05:38.078Z,3
2024-05-09T11:06:37.961Z,2
2024-05-09T11:07:37.947Z,2
2024-05-09T11:08:37.931Z,2
2024-05-09T11:09:37.959Z,2
2024-05-09T11:10:37.979Z,2
2024-05-09T11:11:37.961Z,2
2024-05-09T11:12:37.990Z,2
2024-05-09T11:13:38.035Z,3
2024-05-09T11:14:37.932Z,3
2024-05-09T11:15:37.963Z,2
2024-05-09T11:16:37.945Z,2
2024-05-09T11:17:38.097Z,3
2024-05-09T11:18:39.243Z,2
2024-05-09T11:19:37.993Z,2
2024-05-09T11:20:38.148Z,2
2024-05-09T11:21:38.005Z,3
2024-05-09T11:22:37.975Z,3
2024-05-09T11:23:37.944Z,3
2024-05-09T11:24:37.971Z,3
2024-05-09T11:25:37.955Z,3
2024-05-09T11:26:37.964Z,3
2024-05-09T11:27:38.063Z,3
2024-05-09T11:28:37.952Z,3
2024-05-09T11:29:37.937Z,3
2024-05-09T11:30:38.029Z,3
2024-05-09T11:31:38.032Z,3
2024-05-09T11:32:38.153Z,3
2024-05-09T11:33:38.307Z,3
2024-05-09T11:34:38.051Z,3
2024-05-09T11:35:45.777Z,3
2024-05-09T11:36:37.980Z,3
2024-05-09T11:37:37.948Z,3
2024-05-09T11:38:37.956Z,3
2024-05-09T11:39:37.994Z,3
2024-05-09T11:40:38.001Z,3
2024-05-09T11:41:37.965Z,3
2024-05-09T11:42:37.983Z,3
2024-05-09T11:43:37.967Z,3
2024-05-09T11:44:44.468Z,2
2024-05-09T11:45:37.997Z,2
2024-05-09T11:46:37.967Z,2
2024-05-09T11:47:38.091Z,3
2024-05-09T11:48:38.226Z,3
2024-05-09T11:49:38.009Z,3
2024-05-09T11:50:39.503Z,3
2024-05-09T11:51:38.107Z,3
2024-05-09T11:52:37.945Z,3
2024-05-09T11:53:37.968Z,3
2024-05-09T11:54:38.023Z,3
2024-05-09T11:55:37.941Z,3
2024-05-09T11:56:37.961Z,3
2024-05-09T11:57:38.028Z,3
2024-05-09T11:58:37.949Z,3
2024-05-09T11:59:42.184Z,4
2024-05-09T12:00:38.210Z,3
2024-05-09T12:01:38.101Z,3
2024-05-09T12:02:38.073Z,3
2024-05-09T12:03:38.248Z,3
2024-05-09T12:04:38.151Z,3
2024-05-09T12:05:38.104Z,3
2024-05-09T12:06:38.047Z,4
2024-05-09T12:07:37.960Z,3
2024-05-09T12:08:37.972Z,3
2024-05-09T12:09:37.983Z,3
2024-05-09T12:10:38.185Z,3
2024-05-09T12:11:38.006Z,3
2024-05-09T12:12:38.010Z,3
2024-05-09T12:13:37.971Z,3
2024-05-09T12:14:37.981Z,3
2024-05-09T12:15:38.892Z,3
2024-05-09T12:16:38.029Z,3
2024-05-09T12:17:38.120Z,3
2024-05-09T12:18:38.148Z,3
2024-05-09T12:19:38.037Z,4
2024-05-09T12:20:39.904Z,3
2024-05-09T12:21:37.999Z,3
2024-05-09T12:22:37.992Z,3
2024-05-09T12:23:37.965Z,3
2024-05-09T12:24:37.971Z,4
2024-05-09T12:26:37.965Z,3
2024-05-09T12:27:38.036Z,2
2024-05-09T12:28:37.988Z,3
2024-05-09T12:29:38.909Z,3
2024-05-09T12:30:40.409Z,3
2024-05-09T12:31:38.043Z,2
2024-05-09T12:32:38.165Z,2
2024-05-09T12:33:38.087Z,3
2024-05-09T12:34:38.031Z,3
2024-05-09T12:35:37.996Z,3
2024-05-09T12:36:38.065Z,3
2024-05-09T12:37:37.977Z,3
2024-05-09T12:38:37.979Z,3
2024-05-09T12:40:39.164Z,3
2024-05-09T12:41:37.973Z,2
2024-05-09T12:42:38.034Z,3
2024-05-09T12:43:38.032Z,3
2024-05-09T12:44:37.975Z,3
2024-05-09T12:45:38.382Z,3
2024-05-09T12:46:38.088Z,2
2024-05-09T12:47:38.051Z,3
2024-05-09T12:48:38.175Z,3
2024-05-09T12:49:38.052Z,2
2024-05-09T12:50:38.144Z,2
2024-05-09T12:51:38.122Z,2
2024-05-09T12:52:37.976Z,3
2024-05-09T12:53:37.976Z,3
2024-05-09T12:54:38.038Z,3
2024-05-09T12:55:44.781Z,3
2024-05-09T12:56:37.999Z,3
2024-05-09T12:57:38.037Z,3
2024-05-09T12:58:37.989Z,3
2024-05-09T12:59:37.981Z,3
2024-05-09T13:00:38.071Z,3
2024-05-09T13:01:38.108Z,2
2024-05-09T13:02:38.149Z,3
2024-05-09T13:03:38.167Z,3
2024-05-09T13:04:46.370Z,4
2024-05-09T13:05:38.090Z,3
2024-05-09T13:06:38.044Z,3
2024-05-09T13:07:37.981Z,3
2024-05-09T13:08:37.979Z,3
2024-05-09T13:09:38.068Z,3
2024-05-09T13:10:37.999Z,3
2024-05-09T13:11:38.021Z,3
2024-05-09T13:12:38.004Z,3
2024-05-09T13:13:37.975Z,3
2024-05-09T13:14:37.978Z,3
2024-05-09T13:15:38.056Z,3
2024-05-09T13:16:38.020Z,3
2024-05-09T13:17:38.087Z,3
2024-05-09T13:18:38.081Z,3
2024-05-09T13:19:37.975Z,3
2024-05-09T13:20:37.979Z,3
2024-05-09T13:21:38.022Z,3
2024-05-09T13:22:37.992Z,3
2024-05-09T13:23:38.022Z,3
2024-05-09T13:24:39.183Z,3
2024-05-09T13:25:43.316Z,3
2024-05-09T13:26:37.987Z,3
2024-05-09T13:27:38.027Z,4
2024-05-09T13:28:37.985Z,3
2024-05-09T13:29:40.319Z,3
2024-05-09T13:30:41.055Z,3
2024-05-09T13:31:38.017Z,3
2024-05-09T13:32:38.138Z,3
2024-05-09T13:33:38.192Z,3
2024-05-09T13:34:38.017Z,3
2024-05-09T13:35:38.017Z,3
2024-05-09T13:36:37.984Z,3
2024-05-09T13:37:38.002Z,2
2024-05-09T13:39:38.004Z,2
2024-05-09T13:40:38.110Z,2
2024-05-09T13:41:38.008Z,2
2024-05-09T13:42:37.994Z,3
2024-05-09T13:43:38.026Z,3
2024-05-09T13:44:37.989Z,3
2024-05-09T13:45:38.056Z,3
2024-05-09T13:46:38.041Z,3
2024-05-09T13:47:38.088Z,2
2024-05-09T13:48:38.179Z,3
2024-05-09T13:49:38.037Z,2
2024-05-09T13:50:38.006Z,3
2024-05-09T13:51:38.053Z,3
2024-05-09T13:52:38.013Z,2
2024-05-09T13:53:38.064Z,2
2024-05-09T13:54:38.069Z,2
2024-05-09T13:55:38.001Z,3
2024-05-09T13:56:38.003Z,3
2024-05-09T13:57:38.033Z,2
2024-05-09T13:58:37.993Z,2
2024-05-09T13:59:38.035Z,3
2024-05-09T14:00:44.818Z,2
2024-05-09T14:01:38.236Z,3
2024-05-09T14:02:38.122Z,2
2024-05-09T14:03:38.171Z,3
2024-05-09T14:04:38.209Z,2
2024-05-09T14:05:38.229Z,3
2024-05-09T14:06:41.143Z,3
2024-05-09T14:07:38.007Z,2
2024-05-09T14:08:37.994Z,3
2024-05-09T14:09:38.018Z,3
2024-05-09T14:10:38.142Z,3
2024-05-09T14:11:38.143Z,3
2024-05-09T14:12:38.030Z,2
2024-05-09T14:13:38.001Z,3
2024-05-09T14:14:38.006Z,3
2024-05-09T14:15:38.049Z,3
2024-05-09T14:16:38.146Z,3
2024-05-09T14:17:38.083Z,3
2024-05-09T14:18:38.075Z,3
2024-05-09T14:19:38.018Z,3
2024-05-09T14:20:38.010Z,3
2024-05-09T14:21:38.171Z,3
2024-05-09T14:22:37.995Z,3
2024-05-09T14:23:38.003Z,3
2024-05-09T14:24:38.076Z,3
2024-05-09T14:25:41.479Z,3
2024-05-09T14:26:38.003Z,3
2024-05-09T14:27:38.060Z,4
2024-05-09T14:28:38.005Z,3
2024-05-09T14:29:37.997Z,3
2024-05-09T14:30:39.073Z,3
2024-05-09T14:31:39.559Z,3
2024-05-09T14:32:38.103Z,3
2024-05-09T14:33:38.236Z,3
2024-05-09T14:34:38.088Z,3
2024-05-09T14:35:38.788Z,3
2024-05-09T14:36:38.038Z,4
2024-05-09T14:37:39.755Z,5
2024-05-09T14:38:38.033Z,4
2024-05-09T14:39:40.314Z,3
2024-05-09T14:40:42.899Z,4
2024-05-09T14:41:38.007Z,4
2024-05-09T14:42:38.038Z,4
2024-05-09T14:43:38.050Z,4
2024-05-09T14:44:38.007Z,4
2024-05-09T14:45:38.103Z,4
2024-05-09T14:46:38.019Z,4
2024-05-09T14:47:38.302Z,4
2024-05-09T14:48:51.953Z,4
2024-05-09T14:49:38.162Z,4
2024-05-09T14:50:39.890Z,4
2024-05-09T14:51:38.027Z,5
2024-05-09T14:52:38.025Z,4
2024-05-09T14:53:38.074Z,4
2024-05-09T14:54:38.048Z,4
2024-05-09T14:55:38.312Z,4
2024-05-09T14:56:38.028Z,4
2024-05-09T14:57:38.023Z,4
2024-05-09T14:58:38.014Z,3
2024-05-09T14:59:38.004Z,3